createdAt,value
2018-09-28T00:00:56.085Z,5.00
2018-09-28T00:03:25.896Z,5.00
2018-09-28T00:05:56.326Z,6.00
2018-09-28T00:08:26.348Z,5.20
2018-09-28T00:10:56.429Z,5.00
2018-09-28T00:13:26.434Z,5.00
2018-09-28T00:15:56.001Z,5.00
2018-09-28T00:18:25.824Z,2.80
2018-09-28T00:20:55.905Z,4.00
2018-09-28T00:23:25.324Z,3.80
2018-09-28T00:25:55.320Z,6.00
2018-09-28T00:28:25.102Z,4.00
2018-09-28T00:30:55.094Z,6.00
2018-09-28T00:33:24.649Z,4.00
2018-09-28T00:35:55.228Z,5.60
2018-09-28T00:38:25.566Z,5.00
2018-09-28T00:40:55.171Z,2.00
2018-09-28T00:43:24.740Z,5.00
2018-09-28T00:45:54.788Z,4.60
2018-09-28T00:48:24.413Z,6.40
2018-09-28T00:50:54.148Z,5.20
2018-09-28T00:53:24.208Z,4.00
2018-09-28T00:55:54.015Z,4.60
2018-09-28T00:58:23.685Z,4.20
2018-09-28T01:00:53.307Z,5.00
2018-09-28T01:03:22.909Z,5.60
2018-09-28T01:05:52.527Z,6.00
2018-09-28T01:08:22.249Z,5.00
2018-09-28T01:10:51.885Z,5.00
2018-09-28T01:13:21.625Z,5.60
2018-09-28T01:15:51.776Z,4.00
2018-09-28T01:18:21.543Z,7.20
2018-09-28T01:20:51.260Z,5.00
2018-09-28T01:23:21.342Z,5.80
2018-09-28T01:25:51.097Z,4.40
2018-09-28T01:28:21.305Z,5.60
2018-09-28T01:30:50.923Z,5.40
2018-09-28T01:33:20.471Z,5.00
2018-09-28T01:35:49.889Z,6.00
2018-09-28T01:38:20.007Z,5.80
2018-09-28T01:40:49.756Z,4.20
2018-09-28T01:43:19.296Z,5.00
2018-09-28T01:45:49.033Z,5.40
2018-09-28T01:48:18.665Z,5.00
2018-09-28T01:50:48.361Z,5.00
2018-09-28T01:53:17.981Z,7.00
2018-09-28T01:55:47.544Z,6.40
2018-09-28T01:58:17.480Z,8.00
2018-09-28T02:00:47.916Z,4.80
2018-09-28T02:03:17.517Z,6.00
2018-09-28T02:05:47.437Z,8.80
2018-09-28T02:08:17.362Z,7.80
2018-09-28T02:10:47.039Z,6.80
2018-09-28T02:13:17.311Z,7.00
2018-09-28T02:15:46.997Z,5.40
2018-09-28T02:18:16.978Z,5.80
2018-09-28T02:20:46.568Z,5.60
2018-09-28T02:23:16.224Z,5.00
2018-09-28T02:25:46.025Z,7.40
2018-09-28T02:28:15.685Z,5.00
2018-09-28T02:30:45.281Z,4.80
2018-09-28T02:33:15.419Z,5.40
2018-09-28T02:35:44.975Z,7.00
2018-09-28T02:38:14.797Z,5.80
2018-09-28T02:40:44.921Z,7.00
2018-09-28T02:43:14.516Z,5.00
2018-09-28T02:45:44.272Z,7.00
2018-09-28T02:48:14.065Z,4.80
2018-09-28T02:50:43.606Z,5.00
2018-09-28T02:53:17.616Z,4.80
2018-09-28T02:55:48.603Z,7.80
2018-09-28T02:58:18.314Z,5.00
2018-09-28T03:00:50.243Z,7.20
2018-09-28T03:03:20.039Z,5.00
2018-09-28T03:05:50.224Z,6.20
2018-09-28T03:08:20.444Z,5.60
2018-09-28T03:10:49.913Z,7.40
2018-09-28T03:13:19.803Z,4.40
2018-09-28T03:15:49.347Z,7.00
2018-09-28T03:18:19.435Z,7.60
2018-09-28T03:20:49.013Z,7.60
2018-09-28T03:23:19.662Z,5.80
2018-09-28T03:25:49.258Z,8.80
2018-09-28T03:28:20.108Z,7.00
2018-09-28T03:30:49.764Z,7.80
2018-09-28T03:33:19.722Z,7.60
2018-09-28T03:35:49.795Z,7.00
2018-09-28T03:38:19.385Z,7.80
2018-09-28T03:40:48.985Z,3.20
2018-09-28T03:43:18.451Z,7.00
2018-09-28T03:45:48.382Z,6.20
2018-09-28T03:48:18.556Z,5.80
2018-09-28T03:50:48.399Z,8.80
2018-09-28T03:53:18.079Z,7.00
2018-09-28T03:55:47.609Z,7.00
2018-09-28T03:58:17.099Z,7.60
2018-09-28T04:00:46.794Z,7.40
2018-09-28T04:03:17.332Z,6.20
2018-09-28T04:05:47.174Z,7.60
2018-09-28T04:08:16.849Z,6.20
2018-09-28T04:10:46.483Z,8.20
2018-09-28T04:13:16.211Z,7.00
2018-09-28T04:15:45.871Z,7.00
2018-09-28T04:18:16.016Z,8.00
2018-09-28T04:20:46.034Z,8.60
2018-09-28T04:23:15.803Z,7.00
2018-09-28T04:25:47.473Z,9.80
2018-09-28T04:28:16.906Z,7.20
2018-09-28T04:30:46.841Z,7.20
2018-09-28T04:33:17.010Z,7.00
2018-09-28T04:35:46.576Z,7.60
2018-09-28T04:38:16.370Z,8.00
2018-09-28T04:40:46.128Z,7.20
2018-09-28T04:43:22.256Z,6.60
2018-09-28T04:46:01.702Z,8.20
2018-09-28T04:48:31.390Z,7.20
2018-09-28T04:51:01.186Z,7.20
2018-09-28T04:53:31.370Z,7.60
2018-09-28T04:56:01.086Z,8.80
2018-09-28T04:58:31.067Z,6.20
2018-09-28T05:01:00.983Z,7.20
2018-09-28T05:03:32.007Z,7.00
2018-09-28T05:06:01.633Z,9.00
2018-09-28T05:08:31.644Z,8.40
2018-09-28T05:11:01.479Z,8.00
2018-09-28T05:13:31.963Z,10.60
2018-09-28T05:16:04.060Z,8.80
2018-09-28T05:18:34.898Z,9.00
2018-09-28T05:21:06.030Z,6.80
2018-09-28T05:23:35.616Z,5.60
2018-09-28T05:26:05.911Z,6.00
2018-09-28T05:28:36.323Z,9.00
2018-09-28T05:31:06.459Z,9.00
2018-09-28T05:33:36.183Z,8.00
2018-09-28T05:36:06.033Z,9.80
2018-09-28T05:38:35.526Z,9.60
2018-09-28T05:41:06.414Z,9.60
2018-09-28T05:43:36.697Z,7.00
2018-09-28T05:46:07.244Z,7.40
2018-09-28T05:48:36.848Z,8.60
2018-09-28T05:51:08.520Z,8.80
2018-09-28T05:53:40.926Z,8.20
2018-09-28T05:56:11.247Z,7.00
2018-09-28T05:58:46.135Z,9.60
2018-09-28T06:01:20.554Z,8.80
2018-09-28T06:03:55.195Z,8.60
2018-09-28T06:06:25.288Z,7.80
2018-09-28T06:08:54.997Z,9.00
2018-09-28T06:11:24.626Z,5.00
2018-09-28T06:13:55.227Z,7.20
2018-09-28T06:16:25.070Z,8.20
2018-09-28T06:18:54.979Z,4.60
2018-09-28T06:21:24.700Z,5.80
2018-09-28T06:23:54.550Z,9.00
2018-09-28T06:26:24.274Z,9.00
2018-09-28T06:28:53.856Z,6.00
2018-09-28T06:31:23.377Z,10.00
2018-09-28T06:33:53.059Z,7.00
2018-09-28T06:36:23.338Z,6.40
2018-09-28T06:38:52.831Z,8.20
2018-09-28T06:41:22.855Z,9.00
2018-09-28T06:43:53.070Z,6.40
2018-09-28T06:46:23.095Z,9.60
2018-09-28T06:48:52.876Z,6.00
2018-09-28T06:51:23.223Z,7.40
2018-09-28T06:53:52.779Z,9.60
2018-09-28T06:56:23.868Z,7.40
2018-09-28T06:58:53.766Z,7.40
2018-09-28T07:01:26.014Z,10.60
2018-09-28T07:03:56.060Z,9.40
2018-09-28T07:06:25.755Z,9.60
2018-09-28T07:08:55.728Z,8.20
2018-09-28T07:11:25.485Z,10.00
2018-09-28T07:13:55.471Z,8.40
2018-09-28T07:16:25.210Z,10.00
2018-09-28T07:18:55.071Z,9.40
2018-09-28T07:21:24.969Z,10.60
2018-09-28T07:23:55.403Z,9.40
2018-09-28T07:26:25.076Z,6.80
2018-09-28T07:28:56.469Z,9.60
2018-09-28T07:31:26.911Z,12.20
2018-09-28T07:33:58.057Z,10.80
2018-09-28T07:36:30.433Z,7.80
2018-09-28T07:39:00.493Z,9.00
2018-09-28T07:44:08.707Z,9.80
2018-09-28T07:46:38.196Z,9.80
2018-09-28T07:49:07.883Z,9.00
2018-09-28T07:51:38.345Z,10.60
2018-09-28T07:54:08.499Z,9.60
2018-09-28T07:56:38.977Z,8.20
2018-09-28T07:59:08.817Z,7.80
2018-09-28T08:01:39.094Z,9.00
2018-09-28T08:04:09.094Z,12.00
2018-09-28T08:06:39.007Z,10.00
2018-09-28T08:09:10.214Z,11.00
2018-09-28T08:11:40.132Z,10.00
2018-09-28T08:14:10.092Z,9.80
2018-09-28T08:16:40.349Z,10.60
2018-09-28T08:19:10.721Z,8.20
2018-09-28T08:21:40.525Z,9.20
2018-09-28T08:24:11.145Z,11.00
2018-09-28T08:26:40.970Z,12.20
2018-09-28T08:29:10.786Z,14.80
2018-09-28T08:31:40.301Z,10.00
2018-09-28T08:34:10.306Z,13.20
2018-09-28T08:36:40.078Z,10.80
2018-09-28T08:39:10.948Z,14.00
2018-09-28T08:41:41.202Z,10.00
2018-09-28T08:44:10.797Z,11.80
2018-09-28T08:46:40.686Z,10.80
2018-09-28T08:49:11.029Z,12.40
2018-09-28T08:51:40.663Z,9.00
2018-09-28T08:54:10.621Z,9.60
2018-09-28T08:56:40.563Z,11.00
2018-09-28T08:59:10.645Z,9.60
2018-09-28T09:01:41.300Z,8.20
2018-09-28T09:04:11.345Z,8.60
2018-09-28T09:06:41.148Z,7.60
2018-09-28T09:09:13.534Z,7.00
2018-09-28T09:11:43.653Z,7.40
2018-09-28T09:14:14.103Z,7.00
2018-09-28T09:16:44.508Z,6.40
2018-09-28T09:19:14.602Z,7.40
2018-09-28T09:24:23.816Z,8.00
2018-09-28T09:26:54.104Z,7.00
2018-09-28T09:29:24.218Z,6.40
2018-09-28T09:31:53.720Z,5.00
2018-09-28T09:34:23.785Z,5.80
2018-09-28T09:36:53.723Z,7.80
2018-09-28T09:39:25.040Z,9.60
2018-09-28T09:41:54.908Z,5.20
2018-09-28T09:44:24.477Z,5.40
2018-09-28T09:46:54.580Z,7.20
2018-09-28T09:49:25.175Z,7.20
2018-09-28T09:51:55.202Z,6.20
2018-09-28T09:54:24.883Z,6.00
2018-09-28T09:56:54.618Z,7.00
2018-09-28T09:59:24.736Z,6.00
2018-09-28T10:01:59.994Z,6.60
2018-09-28T10:04:29.858Z,5.80
2018-09-28T10:06:59.434Z,7.00
2018-09-28T10:09:30.421Z,7.60
2018-09-28T10:12:07.516Z,5.40
2018-09-28T10:14:37.519Z,3.00
2018-09-28T10:17:08.088Z,6.00
2018-09-28T10:19:39.002Z,7.00
2018-09-28T10:22:09.905Z,7.40
2018-09-28T10:24:40.698Z,6.00
2018-09-28T10:27:10.931Z,5.00
2018-09-28T10:29:41.079Z,5.60
2018-09-28T10:32:11.150Z,5.40
2018-09-28T10:34:40.820Z,6.00
2018-09-28T10:37:10.595Z,6.00
2018-09-28T10:39:40.584Z,6.00
2018-09-28T10:42:10.728Z,5.20
2018-09-28T10:44:41.351Z,6.20
2018-09-28T10:47:12.354Z,5.60
2018-09-28T10:49:44.155Z,5.00
2018-09-28T10:52:14.478Z,5.00
2018-09-28T10:54:44.196Z,4.60
2018-09-28T10:57:14.825Z,6.80
2018-09-28T10:59:44.692Z,6.00
2018-09-28T11:02:15.095Z,6.00
2018-09-28T11:04:45.443Z,6.20
2018-09-28T11:07:16.189Z,5.40
2018-09-28T11:09:46.403Z,6.00
2018-09-28T11:12:16.483Z,2.20
2018-09-28T11:14:48.375Z,5.60
2018-09-28T11:17:18.801Z,4.20
2018-09-28T11:19:50.102Z,3.00
2018-09-28T11:22:20.754Z,4.20
2018-09-28T11:24:50.819Z,4.20
2018-09-28T11:27:20.684Z,2.60
2018-09-28T11:29:50.458Z,3.00
2018-09-28T11:32:20.717Z,4.40
2018-09-28T11:34:50.544Z,5.00
2018-09-28T11:37:20.993Z,3.00
2018-09-28T11:39:51.016Z,1.80
2018-09-28T11:42:20.651Z,4.60
2018-09-28T11:44:50.678Z,2.00
2018-09-28T11:47:21.079Z,2.00
2018-09-28T11:49:52.436Z,3.00
2018-09-28T11:52:22.297Z,2.00
2018-09-28T11:54:52.972Z,3.40
2018-09-28T11:57:22.627Z,2.20
2018-09-28T11:59:55.153Z,3.00
2018-09-28T12:02:25.481Z,3.40
2018-09-28T12:04:55.528Z,3.00
2018-09-28T12:07:25.619Z,2.60
2018-09-28T12:09:55.911Z,2.00
2018-09-28T12:12:25.691Z,2.00
2018-09-28T12:14:55.395Z,5.00
2018-09-28T12:17:25.527Z,2.60
2018-09-28T12:19:56.657Z,4.20
2018-09-28T12:22:39.746Z,3.80
2018-09-28T12:25:09.412Z,3.00
2018-09-28T12:27:39.161Z,3.40
2018-09-28T12:30:08.727Z,2.40
2018-09-28T12:32:38.496Z,4.40
2018-09-28T12:35:08.468Z,0.80
2018-09-28T12:37:38.671Z,2.00
2018-09-28T12:40:08.856Z,1.60
2018-09-28T12:42:38.981Z,1.00
2018-09-28T12:45:08.479Z,1.80
2018-09-28T12:47:38.628Z,2.00
2018-09-28T12:50:08.300Z,1.00
2018-09-28T12:52:38.987Z,1.80
2018-09-28T12:55:09.483Z,2.00
2018-09-28T12:57:39.152Z,2.00
2018-09-28T13:00:09.626Z,0.00
2018-09-28T13:02:39.248Z,2.00
2018-09-28T13:05:09.076Z,1.20
2018-09-28T13:07:38.820Z,1.00
2018-09-28T13:10:11.011Z,0.00
2018-09-28T13:12:55.320Z,1.80
2018-09-28T13:15:34.759Z,2.00
2018-09-28T13:18:04.693Z,1.00
2018-09-28T13:20:34.459Z,1.40
2018-09-28T13:23:04.085Z,0.80
2018-09-28T13:25:33.792Z,1.00
2018-09-28T13:28:03.435Z,1.00
2018-09-28T13:30:34.331Z,1.00
2018-09-28T13:33:04.807Z,2.60
2018-09-28T13:35:35.091Z,1.00
2018-09-28T13:38:04.691Z,1.40
2018-09-28T13:40:34.737Z,0.60
2018-09-28T13:43:04.728Z,0.80
2018-09-28T13:45:35.714Z,1.00
2018-09-28T13:48:05.769Z,1.00
2018-09-28T13:53:12.062Z,1.00
2018-09-28T13:55:42.332Z,1.00
2018-09-28T13:58:12.197Z,1.00
2018-09-28T14:00:42.241Z,2.00
2018-09-28T14:05:41.507Z,2.00
2018-09-28T14:08:11.252Z,1.20
2018-09-28T14:10:41.832Z,1.00
2018-09-28T14:13:11.818Z,1.40
2018-09-28T14:15:42.078Z,1.00
2018-09-28T14:18:12.155Z,1.00
2018-09-28T14:20:41.894Z,1.00
2018-09-28T14:23:11.451Z,1.00
2018-09-28T14:25:41.764Z,0.40
2018-09-28T14:28:11.556Z,0.00
2018-09-28T14:30:41.435Z,1.00
2018-09-28T14:33:11.379Z,1.00
2018-09-28T14:35:41.038Z,0.60
2018-09-28T14:38:11.210Z,0.60
2018-09-28T14:40:40.987Z,0.80
2018-09-28T14:43:10.488Z,0.60
2018-09-28T14:45:40.040Z,0.20
2018-09-28T14:48:08.613Z,0.00
2018-09-28T14:50:38.607Z,0.00
2018-09-28T14:53:09.173Z,1.00
2018-09-28T14:55:39.176Z,0.00
2018-09-28T14:58:08.815Z,0.00
2018-09-28T15:00:39.117Z,0.00
2018-09-28T15:03:08.823Z,0.00
2018-09-28T15:05:38.465Z,0.60
2018-09-28T15:08:08.429Z,0.20
2018-09-28T15:10:38.866Z,1.00
2018-09-28T15:13:09.438Z,0.60
2018-09-28T15:15:39.887Z,0.20
2018-09-28T15:18:09.363Z,0.80
2018-09-28T15:20:40.085Z,1.00
2018-09-28T15:23:09.948Z,0.00
2018-09-28T15:25:39.529Z,0.00
2018-09-28T15:28:10.699Z,0.60
2018-09-28T15:30:41.399Z,0.00
2018-09-28T15:33:10.898Z,0.00
2018-09-28T15:35:40.740Z,1.00
2018-09-28T15:38:10.877Z,0.00
2018-09-28T15:40:41.178Z,0.00
2018-09-28T15:43:11.088Z,0.00
2018-09-28T15:45:41.705Z,0.00
2018-09-28T15:48:11.706Z,1.00
2018-09-28T15:50:41.878Z,0.20
2018-09-28T15:53:11.455Z,0.00
2018-09-28T15:55:41.692Z,0.00
2018-09-28T15:58:11.723Z,0.00
2018-09-28T16:00:43.092Z,0.00
2018-09-28T16:03:12.966Z,0.00
2018-09-28T16:05:42.709Z,0.00
2018-09-28T16:08:12.404Z,0.60
2018-09-28T16:10:42.072Z,1.00
2018-09-28T16:13:12.178Z,0.00
2018-09-28T16:15:41.775Z,0.00
2018-09-28T16:18:11.653Z,0.00
2018-09-28T16:20:41.183Z,0.00
2018-09-28T16:23:11.115Z,0.00
2018-09-28T16:25:41.213Z,0.20
2018-09-28T16:28:10.850Z,0.00
2018-09-28T16:30:40.316Z,0.00
2018-09-28T16:33:09.906Z,0.00
2018-09-28T16:35:40.038Z,1.00
2018-09-28T16:38:09.651Z,0.20
2018-09-28T16:40:39.259Z,0.00
2018-09-28T16:43:08.966Z,1.40
2018-09-28T16:45:38.683Z,0.80
2018-09-28T16:48:08.190Z,1.00
2018-09-28T16:50:37.876Z,0.00
2018-09-28T16:53:07.413Z,0.00
2018-09-28T16:55:37.159Z,0.00
2018-09-28T16:58:06.930Z,0.00
2018-09-28T17:00:38.176Z,0.00
2018-09-28T17:03:08.490Z,0.00
2018-09-28T17:05:38.010Z,0.00
2018-09-28T17:08:08.147Z,0.00
2018-09-28T17:10:38.099Z,0.00
2018-09-28T17:13:07.733Z,0.00
2018-09-28T17:15:37.869Z,0.00
2018-09-28T17:18:07.647Z,0.00
2018-09-28T17:20:41.077Z,0.00
2018-09-28T17:23:12.111Z,0.00
2018-09-28T17:25:41.720Z,0.00
2018-09-28T17:28:11.441Z,0.00
2018-09-28T17:30:41.247Z,0.00
2018-09-28T17:33:11.616Z,0.00
2018-09-28T17:35:43.535Z,0.00
2018-09-28T17:38:13.817Z,0.00
2018-09-28T17:40:44.435Z,0.00
2018-09-28T17:43:14.325Z,0.00
2018-09-28T17:45:44.036Z,0.00
2018-09-28T17:48:14.169Z,0.20
2018-09-28T17:50:44.372Z,0.00
2018-09-28T17:53:14.233Z,0.00
2018-09-28T17:55:44.490Z,0.00
2018-09-28T17:58:14.046Z,0.00
2018-09-28T18:00:44.314Z,0.00
2018-09-28T18:03:17.806Z,0.00
2018-09-28T18:05:51.582Z,0.00
2018-09-28T18:08:27.775Z,0.00
2018-09-28T18:10:57.791Z,0.00
2018-09-28T18:13:27.332Z,0.00
2018-09-28T18:15:57.176Z,0.00
2018-09-28T18:18:28.674Z,0.00
2018-09-28T18:21:00.165Z,0.00
2018-09-28T18:23:32.916Z,0.00
2018-09-28T18:26:03.164Z,0.00
2018-09-28T18:28:33.231Z,0.00
2018-09-28T18:31:03.322Z,0.00
2018-09-28T18:33:32.794Z,0.00
2018-09-28T18:36:03.186Z,1.00
2018-09-28T18:38:33.389Z,0.00
2018-09-28T18:41:03.199Z,0.00
2018-09-28T18:43:39.715Z,0.00
2018-09-28T18:46:09.778Z,0.00
2018-09-28T18:48:40.012Z,0.00
2018-09-28T18:51:10.669Z,0.00
2018-09-28T18:53:40.469Z,0.00
2018-09-28T18:56:11.964Z,0.00
2018-09-28T18:58:42.108Z,0.00
2018-09-28T19:01:11.754Z,0.00
2018-09-28T19:03:41.739Z,0.00
2018-09-28T19:06:12.603Z,0.00
2018-09-28T19:08:43.014Z,0.00
2018-09-28T19:11:12.644Z,0.00
2018-09-28T19:13:43.383Z,0.00
2018-09-28T19:16:13.167Z,0.40
2018-09-28T19:18:42.791Z,0.00
2018-09-28T19:23:52.703Z,1.00
2018-09-28T19:26:22.331Z,0.00
2018-09-28T19:28:54.504Z,0.00
2018-09-28T19:31:24.314Z,0.00
2018-09-28T19:33:54.449Z,0.00
2018-09-28T19:36:24.431Z,0.00
2018-09-28T19:38:54.243Z,0.00
2018-09-28T19:41:24.010Z,0.00
2018-09-28T19:43:54.347Z,0.00
2018-09-28T19:46:24.177Z,0.60
2018-09-28T19:48:53.942Z,0.00
2018-09-28T19:51:23.987Z,0.80
2018-09-28T19:53:54.892Z,0.00
2018-09-28T19:56:24.962Z,0.00
2018-09-28T19:58:54.595Z,0.00
2018-09-28T20:01:24.735Z,0.00
2018-09-28T20:03:54.618Z,0.00
2018-09-28T20:06:24.188Z,0.00
2018-09-28T20:08:54.154Z,0.00
2018-09-28T20:11:24.186Z,0.00
2018-09-28T20:13:55.169Z,0.00
2018-09-28T20:16:26.066Z,0.00
2018-09-28T20:18:56.340Z,0.40
2018-09-28T20:21:26.622Z,0.60
2018-09-28T20:23:56.438Z,0.00
2018-09-28T20:26:26.447Z,0.00
2018-09-28T20:28:56.313Z,0.00
2018-09-28T20:31:26.101Z,0.00
2018-09-28T20:33:56.327Z,0.00
2018-09-28T20:36:26.170Z,0.00
2018-09-28T20:38:56.269Z,0.00
2018-09-28T20:41:26.584Z,0.80
2018-09-28T20:43:56.708Z,0.60
2018-09-28T20:46:26.524Z,0.00
2018-09-28T20:48:56.725Z,1.00
2018-09-28T20:51:26.435Z,0.00
2018-09-28T20:53:56.907Z,0.20
2018-09-28T20:56:27.151Z,0.60
2018-09-28T20:58:57.180Z,0.00
2018-09-28T21:01:27.154Z,0.00
2018-09-28T21:03:56.863Z,0.00
2018-09-28T21:06:26.524Z,1.00
2018-09-28T21:08:56.264Z,0.80
2018-09-28T21:11:26.779Z,0.00
2018-09-28T21:13:57.078Z,0.00
2018-09-28T21:16:27.096Z,1.00
2018-09-28T21:18:56.858Z,0.00
2018-09-28T21:21:27.186Z,0.00
2018-09-28T21:23:56.857Z,0.00
2018-09-28T21:26:27.398Z,0.00
2018-09-28T21:28:57.339Z,1.00
2018-09-28T21:31:26.902Z,0.00
2018-09-28T21:33:56.625Z,0.00
2018-09-28T21:36:26.499Z,0.00
2018-09-28T21:38:56.938Z,1.00
2018-09-28T21:41:27.062Z,0.00
2018-09-28T21:43:57.670Z,0.20
2018-09-28T21:46:29.704Z,0.00
2018-09-28T21:49:00.543Z,0.00
2018-09-28T21:51:30.366Z,0.60
2018-09-28T21:54:00.456Z,0.00
2018-09-28T21:56:30.445Z,0.00
2018-09-28T21:59:00.338Z,0.00
2018-09-28T22:01:30.455Z,0.00
2018-09-28T22:04:00.191Z,0.00
2018-09-28T22:06:30.348Z,0.40
2018-09-28T22:09:00.158Z,0.00
2018-09-28T22:11:30.102Z,0.00
2018-09-28T22:13:59.729Z,0.00
2018-09-28T22:16:29.780Z,0.00
2018-09-28T22:18:59.832Z,0.20
2018-09-28T22:21:29.824Z,0.80
2018-09-28T22:23:59.787Z,0.00
2018-09-28T22:26:30.326Z,0.00
2018-09-28T22:28:59.785Z,0.00
2018-09-28T22:31:30.422Z,0.00
2018-09-28T22:34:00.032Z,0.00
2018-09-28T22:36:29.562Z,0.40
2018-09-28T22:39:00.145Z,0.20
2018-09-28T22:41:29.874Z,0.00
2018-09-28T22:43:59.719Z,0.00
2018-09-28T22:46:29.771Z,0.00
2018-09-28T22:48:59.509Z,0.80
2018-09-28T22:51:29.585Z,0.00
2018-09-28T22:53:59.210Z,0.00
2018-09-28T22:56:28.736Z,0.00
2018-09-28T22:58:59.070Z,0.20
2018-09-28T23:01:29.339Z,0.00
2018-09-28T23:03:59.099Z,0.00
2018-09-28T23:06:29.255Z,0.00
2018-09-28T23:08:59.157Z,0.00
2018-09-28T23:11:28.727Z,0.00
2018-09-28T23:13:58.460Z,0.00
2018-09-28T23:16:28.010Z,0.00
2018-09-28T23:18:58.198Z,0.00
2018-09-28T23:21:27.881Z,0.00
2018-09-28T23:23:57.475Z,1.00
2018-09-28T23:26:27.142Z,0.00
2018-09-28T23:28:56.700Z,0.00
2018-09-28T23:31:26.416Z,0.00
2018-09-28T23:33:55.971Z,0.80
2018-09-28T23:36:25.894Z,0.00
2018-09-28T23:38:55.479Z,0.00
2018-09-28T23:41:25.192Z,0.00
2018-09-28T23:43:54.887Z,0.00
2018-09-28T23:46:24.487Z,0.00
2018-09-28T23:48:54.165Z,0.00
2018-09-28T23:51:23.813Z,0.00
2018-09-28T23:53:53.628Z,0.00
2018-09-28T23:56:23.358Z,0.00
2018-09-28T23:58:53.706Z,0.00
